createdAt,value
2018-11-06T00:04:52.464Z,75.20
2018-11-06T00:10:57.140Z,71.43
2018-11-06T00:17:01.832Z,79.63
2018-11-06T00:23:07.531Z,67.90
2018-11-06T00:29:12.839Z,72.00
2018-11-06T00:35:17.530Z,67.17
2018-11-06T00:41:22.450Z,62.67
2018-11-06T00:47:27.212Z,66.23
2018-11-06T00:53:31.856Z,76.07
2018-11-06T00:59:36.516Z,79.67
2018-11-06T01:05:41.237Z,69.80
2018-11-06T01:11:46.604Z,67.53
2018-11-06T01:17:51.290Z,60.30
2018-11-06T01:23:55.986Z,67.73
2018-11-06T01:30:00.989Z,66.17
2018-11-06T01:36:05.934Z,59.73
2018-11-06T01:42:10.687Z,70.73
2018-11-06T01:48:15.364Z,67.57
2018-11-06T01:54:20.778Z,53.30
2018-11-06T02:00:25.512Z,62.63
2018-11-06T02:06:30.426Z,60.97
2018-11-06T02:12:35.067Z,69.80
2018-11-06T02:18:39.696Z,70.97
2018-11-06T02:24:45.067Z,64.13
2018-11-06T02:30:49.719Z,64.97
2018-11-06T02:36:54.391Z,60.07
2018-11-06T02:42:59.208Z,72.37
2018-11-06T02:49:03.879Z,68.67
2018-11-06T02:55:09.203Z,58.33
2018-11-06T03:01:14.574Z,55.27
2018-11-06T03:07:19.295Z,64.97
2018-11-06T03:13:23.918Z,58.80
2018-11-06T03:19:28.910Z,49.33
2018-11-06T03:25:33.563Z,46.00
2018-11-06T03:31:38.526Z,47.73
2018-11-06T03:37:43.566Z,58.37
2018-11-06T03:43:48.222Z,58.00
2018-11-06T03:49:52.957Z,58.07
2018-11-06T03:55:57.965Z,48.70
2018-11-06T04:02:02.624Z,59.57
2018-11-06T04:08:07.786Z,52.10
2018-11-06T04:14:12.729Z,61.90
2018-11-06T04:20:17.401Z,52.00
2018-11-06T04:26:22.137Z,56.57
2018-11-06T04:32:26.785Z,57.13
2018-11-06T04:38:31.449Z,51.30
2018-11-06T04:44:36.899Z,52.47
2018-11-06T04:50:41.672Z,57.03
2018-11-06T04:56:46.795Z,51.53
2018-11-06T05:02:51.530Z,45.03
2018-11-06T05:08:56.722Z,69.03
2018-11-06T05:15:01.705Z,50.07
2018-11-06T05:21:07.391Z,58.63
2018-11-06T05:27:12.122Z,52.90
2018-11-06T05:33:17.779Z,57.37
2018-11-06T05:39:22.430Z,50.67
2018-11-06T05:45:27.229Z,57.00
2018-11-06T05:51:31.838Z,67.53
2018-11-06T05:57:37.224Z,60.00
2018-11-06T06:03:41.883Z,47.33
2018-11-06T06:09:46.934Z,46.07
2018-11-06T06:15:52.272Z,52.00
2018-11-06T06:21:57.260Z,49.83
2018-11-06T06:28:02.335Z,48.67
2018-11-06T06:34:07.616Z,44.73
2018-11-06T06:40:15.403Z,52.90
2018-11-06T06:46:20.762Z,44.00
2018-11-06T06:52:25.439Z,48.83
2018-11-06T06:58:30.403Z,50.73
2018-11-06T07:04:35.064Z,42.80
2018-11-06T07:10:40.111Z,55.67
2018-11-06T07:16:44.756Z,52.50
2018-11-06T07:22:49.389Z,50.10
2018-11-06T07:28:54.416Z,67.07
2018-11-06T07:34:59.395Z,55.93
2018-11-06T07:41:04.373Z,51.40
2018-11-06T07:47:08.954Z,55.60
2018-11-06T07:53:13.601Z,52.70
2018-11-06T07:59:18.333Z,42.50
2018-11-06T08:05:23.051Z,46.63
2018-11-06T08:11:27.724Z,37.83
2018-11-06T08:17:32.424Z,42.50
2018-11-06T08:23:37.059Z,44.50
2018-11-06T08:29:42.610Z,37.40
2018-11-06T08:35:48.829Z,39.60
2018-11-06T08:41:53.893Z,32.67
2018-11-06T08:47:58.564Z,33.57
2018-11-06T08:54:03.248Z,27.10
2018-11-06T09:00:11.859Z,31.10
2018-11-06T09:06:16.742Z,37.20
2018-11-06T09:12:21.751Z,29.87
2018-11-06T09:18:26.588Z,36.30
2018-11-06T09:24:31.381Z,31.03
2018-11-06T09:30:36.075Z,27.27
2018-11-06T09:36:41.202Z,30.60
2018-11-06T09:42:45.924Z,23.47
2018-11-06T09:48:50.708Z,34.87
2018-11-06T09:54:55.468Z,28.23
2018-11-06T10:01:03.370Z,33.50
2018-11-06T10:07:09.306Z,29.67
2018-11-06T10:13:14.104Z,26.33
2018-11-06T10:19:19.095Z,29.70
2018-11-06T10:25:23.844Z,26.43
2018-11-06T10:31:28.832Z,32.83
2018-11-06T10:37:34.475Z,26.80
2018-11-06T10:43:39.259Z,23.47
2018-11-06T10:49:44.185Z,24.53
2018-11-06T10:55:48.813Z,29.23
2018-11-06T11:01:58.629Z,25.40
2018-11-06T11:08:03.971Z,28.43
2018-11-06T11:14:08.931Z,27.70
2018-11-06T11:20:14.627Z,25.33
2018-11-06T11:26:19.427Z,25.30
2018-11-06T11:32:24.108Z,32.33
2018-11-06T11:38:29.022Z,31.37
2018-11-06T11:44:33.841Z,26.43
2018-11-06T11:50:39.162Z,28.33
2018-11-06T11:56:43.804Z,27.70
2018-11-06T12:02:49.407Z,26.43
2018-11-06T12:08:54.618Z,23.43
2018-11-06T12:14:59.604Z,24.77
2018-11-06T12:21:04.372Z,24.37
2018-11-06T12:27:09.475Z,33.30
2018-11-06T12:33:15.057Z,24.40
2018-11-06T12:39:19.992Z,22.90
2018-11-06T12:45:25.265Z,21.90
2018-11-06T12:51:30.448Z,18.73
2018-11-06T12:57:35.197Z,23.30
2018-11-06T13:03:40.763Z,22.43
2018-11-06T13:09:45.685Z,23.10
2018-11-06T13:15:50.381Z,23.03
2018-11-06T13:21:55.420Z,25.97
2018-11-06T13:28:00.940Z,24.10
2018-11-06T13:34:06.211Z,25.73
2018-11-06T13:40:12.933Z,23.53
2018-11-06T13:46:18.043Z,27.63
2018-11-06T13:52:23.115Z,23.63
2018-11-06T13:58:28.170Z,28.17
2018-11-06T14:04:33.249Z,24.93
2018-11-06T14:10:38.365Z,29.20
2018-11-06T14:16:43.060Z,24.93
2018-11-06T14:22:47.761Z,26.77
2018-11-06T14:28:53.057Z,26.10
2018-11-06T14:34:57.762Z,29.67
2018-11-06T14:41:02.457Z,27.43
2018-11-06T14:47:07.529Z,25.10
2018-11-06T14:53:12.253Z,25.83
2018-11-06T14:59:17.190Z,26.37
2018-11-06T15:05:23.156Z,27.80
2018-11-06T15:11:28.720Z,24.57
2018-11-06T15:17:34.364Z,26.87
2018-11-06T15:23:39.600Z,26.07
2018-11-06T15:29:44.428Z,37.73
2018-11-06T15:35:49.159Z,26.27
2018-11-06T15:41:54.596Z,24.63
2018-11-06T15:47:59.146Z,23.87
2018-11-06T15:54:04.105Z,26.00
2018-11-06T16:00:24.279Z,33.70
2018-11-06T16:06:29.189Z,27.40
2018-11-06T16:12:34.156Z,30.13
2018-11-06T16:18:39.236Z,26.63
2018-11-06T16:24:44.150Z,26.60
2018-11-06T16:30:48.889Z,30.50
2018-11-06T16:36:53.993Z,31.70
2018-11-06T16:42:58.812Z,32.60
2018-11-06T16:49:03.637Z,30.33
2018-11-06T16:55:09.248Z,37.80
2018-11-06T17:01:14.552Z,32.33
2018-11-06T17:07:19.719Z,38.73
2018-11-06T17:13:24.437Z,30.73
2018-11-06T17:19:29.540Z,26.13
2018-11-06T17:25:34.331Z,35.73
2018-11-06T17:31:39.809Z,30.77
2018-11-06T17:37:44.738Z,34.90
2018-11-06T17:43:49.654Z,30.17
2018-11-06T17:49:54.453Z,33.90
2018-11-06T17:55:59.131Z,33.33
2018-11-06T18:02:03.950Z,48.87
2018-11-06T18:08:09.727Z,35.60
2018-11-06T18:14:14.865Z,41.80
2018-11-06T18:20:19.618Z,31.00
2018-11-06T18:26:24.856Z,34.80
2018-11-06T18:32:29.583Z,36.20
2018-11-06T18:38:34.626Z,39.90
2018-11-06T18:44:39.501Z,32.10
2018-11-06T18:50:44.405Z,29.20
2018-11-06T18:56:49.519Z,28.60
2018-11-06T19:02:54.631Z,29.17
2018-11-06T19:09:00.417Z,33.43
2018-11-06T19:15:09.134Z,40.70
2018-11-06T19:21:13.996Z,33.37
2018-11-06T19:27:19.510Z,31.90
2018-11-06T19:33:24.313Z,31.77
2018-11-06T19:39:29.010Z,26.33
2018-11-06T19:45:34.280Z,29.30
2018-11-06T19:51:39.004Z,26.77
2018-11-06T19:57:43.829Z,31.30
2018-11-06T20:03:49.016Z,29.43
2018-11-06T20:09:53.803Z,25.40
2018-11-06T20:15:58.920Z,29.10
2018-11-06T20:22:03.956Z,28.00
2018-11-06T20:28:08.729Z,27.83
2018-11-06T20:34:14.527Z,31.90
2018-11-06T20:40:20.941Z,47.60
2018-11-06T20:46:25.721Z,34.93
2018-11-06T20:52:30.393Z,36.43
2018-11-06T20:58:35.681Z,31.80
2018-11-06T21:04:40.444Z,37.70
2018-11-06T21:10:45.295Z,30.80
2018-11-06T21:16:50.099Z,32.93
2018-11-06T21:22:54.938Z,33.30
2018-11-06T21:29:00.278Z,34.23
2018-11-06T21:35:05.836Z,35.27
2018-11-06T21:41:10.549Z,35.70
2018-11-06T21:47:15.708Z,31.23
2018-11-06T21:53:20.576Z,37.17
2018-11-06T21:59:25.346Z,39.50
2018-11-06T22:05:30.075Z,35.57
2018-11-06T22:11:34.894Z,44.70
2018-11-06T22:17:40.241Z,44.87
2018-11-06T22:23:45.041Z,41.77
2018-11-06T22:29:50.000Z,42.60
2018-11-06T22:35:54.868Z,44.37
2018-11-06T22:41:59.957Z,38.33
2018-11-06T22:48:04.824Z,40.37
2018-11-06T22:54:09.633Z,43.47
2018-11-06T23:00:19.662Z,39.73
2018-11-06T23:06:24.887Z,40.83
2018-11-06T23:12:29.443Z,36.37
2018-11-06T23:18:34.169Z,44.00
2018-11-06T23:24:38.971Z,33.40
2018-11-06T23:30:43.707Z,37.97
2018-11-06T23:36:48.562Z,40.33
2018-11-06T23:42:54.150Z,46.00
2018-11-06T23:48:58.851Z,39.87
2018-11-06T23:55:04.011Z,41.83
